Time;durP1;ratioP1;P1;durP2;ratioP2;P2;SDS_P1;SDS_P2;PMS_P1;PMS_P2;Temp;Humidity;BMP_temperature;BMP_pressure;BME280_temperature;BME280_humidity;BME280_pressure;Samples;Min_cycle;Max_cycle;Signal;HPM_P1;HPM_P2
2022/08/06 00:02:15;;;;;;;7.07;4.85;;;;;;;27.26;43.26;99344.91;5153074;27;20086;-37
2022/08/06 00:04:40;;;;;;;7.85;4.60;;;;;;;27.36;43.09;99344.59;5153047;27;20021;-37
2022/08/06 00:07:06;;;;;;;5.68;4.70;;;;;;;28.09;41.15;99338.22;5152815;27;20547;-37
2022/08/06 00:09:32;;;;;;;6.13;4.47;;;;;;;27.34;43.16;99349.56;5152830;27;20485;-37
2022/08/06 00:12:02;;;;;;;4.97;4.32;;;;;;;27.36;43.05;99349.22;5152655;27;20065;-37
2022/08/06 00:14:30;;;;;;;6.32;4.45;;;;;;;27.39;42.97;99345.84;5152734;27;20117;-37
2022/08/06 00:16:55;;;;;;;5.30;4.80;;;;;;;27.97;41.42;99336.19;5152660;27;20026;-37
2022/08/06 00:19:21;;;;;;;9.18;4.57;;;;;;;27.48;42.93;99346.66;5152498;27;20022;-37
2022/08/06 00:21:48;;;;;;;4.78;4.22;;;;;;;27.18;43.69;99335.59;5152808;27;20058;-38
2022/08/06 00:24:14;;;;;;;5.40;4.40;;;;;;;27.32;43.35;99337.34;5152649;27;20307;-37
2022/08/06 00:26:40;;;;;;;8.05;4.35;;;;;;;27.68;42.30;99345.94;5152328;27;20450;-37
2022/08/06 00:29:05;;;;;;;7.38;4.60;;;;;;;27.30;43.07;99337.69;5152575;27;20050;-37
2022/08/06 00:31:31;;;;;;;5.80;4.35;;;;;;;27.13;43.84;99341.25;5153078;27;20074;-37
2022/08/06 00:34:00;;;;;;;6.63;4.20;;;;;;;27.02;44.00;99340.75;5152697;27;20457;-37
2022/08/06 00:36:26;;;;;;;4.68;4.28;;;;;;;27.40;43.11;99342.81;5152644;27;20023;-37
2022/08/06 00:38:53;;;;;;;6.00;4.50;;;;;;;27.26;43.34;99342.19;5152297;27;20451;-37
2022/08/06 00:41:19;;;;;;;7.43;4.47;;;;;;;27.11;43.52;99344.28;5152708;27;20083;-37
2022/08/06 00:43:45;;;;;;;6.85;4.07;;;;;;;27.19;43.95;99347.31;5152583;27;20023;-37
2022/08/06 00:46:11;;;;;;;7.65;4.55;;;;;;;27.43;43.47;99346.81;5152215;27;20053;-37
2022/08/06 00:48:36;;;;;;;8.68;4.90;;;;;;;27.52;43.27;99352.25;5151947;27;20022;-37
2022/08/06 00:51:02;;;;;;;8.50;4.38;;;;;;;27.04;44.25;99348.63;5152031;27;20082;-37
2022/08/06 00:53:28;;;;;;;7.43;4.82;;;;;;;26.97;44.65;99342.84;5152438;27;20025;-37
2022/08/06 00:55:53;;;;;;;7.30;4.50;;;;;;;27.20;44.16;99338.78;5152293;27;20027;-37
2022/08/06 00:58:19;;;;;;;5.10;4.60;;;;;;;27.58;43.17;99351.75;5151999;27;20019;-37
2022/08/06 01:00:44;;;;;;;6.22;4.30;;;;;;;27.03;44.24;99347.00;5152138;27;20396;-37
2022/08/06 01:03:10;;;;;;;7.03;4.72;;;;;;;26.89;44.58;99353.44;5152141;27;20070;-36
2022/08/06 01:05:36;;;;;;;7.90;4.40;;;;;;;26.78;44.70;99340.44;5152324;27;20098;-38
2022/08/06 01:08:02;;;;;;;6.75;4.70;;;;;;;27.60;42.90;99351.41;5152170;27;20031;-36
2022/08/06 01:10:28;;;;;;;5.70;4.60;;;;;;;26.94;44.75;99352.50;5151800;27;20026;-36
2022/08/06 01:12:53;;;;;;;7.53;4.82;;;;;;;26.79;45.11;99348.31;5151989;27;20019;-36
2022/08/06 01:15:19;;;;;;;7.88;4.50;;;;;;;26.76;45.20;99345.44;5151757;27;20109;-36
2022/08/06 01:18:02;;;;;;;8.98;4.90;;;;;;;27.43;43.66;99344.06;5151950;27;20106;-37
2022/08/06 01:20:41;;;;;;;7.25;4.90;;;;;;;26.84;44.95;99347.34;5151280;27;20022;-37
2022/08/06 01:23:48;;;;;;;6.90;4.80;;;;;;;26.80;45.66;99340.94;5151778;27;20086;-37
2022/08/06 01:26:22;;;;;;;6.35;4.70;;;;;;;26.69;45.92;99343.16;5140036;27;20107;-37
2022/08/06 01:29:15;;;;;;;5.82;4.70;;;;;;;26.84;45.20;99345.41;5151701;27;20030;-37
2022/08/06 01:32:06;;;;;;;6.25;4.95;;;;;;;26.33;46.62;99336.03;5151814;27;20102;-37
2022/08/06 01:34:40;;;;;;;6.07;5.10;;;;;;;26.29;47.20;99340.53;5151793;27;20087;-37
2022/08/06 01:37:25;;;;;;;6.63;4.88;;;;;;;26.76;45.93;99335.31;5151669;27;20018;-37
2022/08/06 01:39:56;;;;;;;5.97;4.68;;;;;;;26.63;46.26;99339.00;5151357;27;20022;-37
2022/08/06 01:42:25;;;;;;;7.60;4.68;;;;;;;26.50;46.39;99329.81;5151623;27;20107;-37
2022/08/06 01:44:54;;;;;;;7.68;4.97;;;;;;;26.61;46.08;99327.59;5151668;27;20018;-37
2022/08/06 01:47:22;;;;;;;5.63;4.57;;;;;;;26.88;45.30;99324.56;5151525;27;20029;-37
2022/08/06 01:49:57;;;;;;;7.43;4.75;;;;;;;26.84;44.28;99333.69;5151383;27;20074;-37
2022/08/06 01:52:24;;;;;;;5.10;4.60;;;;;;;26.55;44.82;99337.84;5151631;27;20029;-37
2022/08/06 01:54:52;;;;;;;5.65;4.60;;;;;;;26.57;45.45;99337.53;5151549;27;20030;-37
2022/08/06 01:57:20;;;;;;;7.55;4.90;;;;;;;26.88;44.49;99348.31;5151353;27;20045;-37
2022/08/06 01:59:50;;;;;;;6.67;4.93;;;;;;;26.91;44.22;99344.94;5150530;27;20050;-38
2022/08/06 02:02:20;;;;;;;9.05;5.00;;;;;;;26.42;44.64;99328.66;5153913;27;20019;-36
2022/08/06 02:04:49;;;;;;;6.35;4.88;;;;;;;26.38;44.47;99335.88;5155518;27;20452;-36
2022/08/06 02:07:17;;;;;;;6.95;4.90;;;;;;;26.58;43.79;99336.38;5155851;27;20517;-37
2022/08/06 02:09:46;;;;;;;6.32;4.82;;;;;;;26.80;43.19;99328.06;5155947;27;20037;-37
2022/08/06 02:12:13;;;;;;;;;;;;;;;26.42;44.12;99328.66;5156222;27;20019;-37
2022/08/06 02:14:59;;;;;;;6.18;4.60;;;;;;;26.39;44.53;99329.31;5155433;27;19911;-37
2022/08/06 02:17:29;;;;;;;6.63;4.75;;;;;;;26.59;44.40;99332.56;5155872;27;20018;-37
2022/08/06 02:20:00;;;;;;;5.47;4.93;;;;;;;26.92;43.71;99338.34;5142546;27;20047;-37
2022/08/06 02:22:28;;;;;;;8.60;5.15;;;;;;;26.40;44.81;99324.66;5135002;27;20170;-37
2022/08/06 02:24:57;;;;;;;9.93;5.07;;;;;;;26.29;45.21;99327.72;5134842;27;20043;-37
2022/08/06 02:27:24;;;;;;;6.00;4.72;;;;;;;26.59;44.62;99330.66;5135267;27;20027;-37
2022/08/06 02:29:52;;;;;;;5.90;4.75;;;;;;;27.03;43.38;99330.63;5134852;27;20050;-37
2022/08/06 02:32:18;;;;;;;7.32;4.80;;;;;;;26.37;44.95;99328.84;5134836;27;20113;-37
2022/08/06 02:34:44;;;;;;;9.15;5.07;;;;;;;26.42;45.00;99328.66;5134640;27;20023;-37
2022/08/06 02:37:43;;;;;;;6.68;5.05;;;;;;;26.69;44.88;99334.97;5134258;27;20079;-37
2022/08/06 02:40:21;;;;;;;7.53;5.10;;;;;;;26.84;44.33;99326.31;5122961;27;20054;-37
2022/08/06 02:42:58;;;;;;;8.60;5.20;;;;;;;26.39;45.68;99323.03;5134271;27;20209;-37
2022/08/06 02:45:38;;;;;;;7.63;5.15;;;;;;;26.37;45.77;99319.84;5134524;27;20023;-37
2022/08/06 02:48:49;;;;;;;9.35;5.07;;;;;;;26.62;45.24;99326.50;5134686;27;20079;-37
2022/08/06 02:51:27;;;;;;;6.47;4.97;;;;;;;26.60;45.30;99317.78;5131390;27;20485;-37
2022/08/06 02:54:10;;;;;;;7.63;5.35;;;;;;;26.51;45.30;99324.03;5134393;27;20070;-37
2022/08/06 02:56:40;;;;;;;5.93;4.85;;;;;;;26.50;44.86;99327.06;5134168;27;20035;-37
2022/08/06 02:59:07;;;;;;;6.10;5.20;;;;;;;26.91;43.74;99321.16;5147506;27;20038;-37
2022/08/06 03:01:36;;;;;;;9.20;5.18;;;;;;;26.51;44.60;99325.97;5155034;27;20056;-37
2022/08/06 03:04:05;;;;;;;7.88;5.10;;;;;;;26.27;45.34;99324.50;5155119;27;20027;-36
2022/08/06 03:06:33;;;;;;;;;;;;;;;26.45;44.74;99328.03;5155517;27;20035;-36
2022/08/06 03:09:01;;;;;;;5.43;4.90;;;;;;;26.82;43.54;99331.28;5154625;27;20346;-37
2022/08/06 03:11:32;;;;;;;7.53;5.35;;;;;;;26.53;44.11;99329.19;5154947;27;20058;-37
2022/08/06 03:14:03;;;;;;;6.40;5.38;;;;;;;26.44;43.54;99334.59;5154889;27;20055;-37
2022/08/06 03:16:33;;;;;;;6.45;5.03;;;;;;;26.50;43.45;99341.53;5154633;27;20038;-37
2022/08/06 03:19:00;;;;;;;8.27;5.13;;;;;;;26.89;42.70;99339.00;5154014;27;20018;-37
2022/08/06 03:21:28;;;;;;;6.25;5.10;;;;;;;26.66;43.42;99336.44;5154682;27;20023;-37
2022/08/06 03:23:55;;;;;;;5.63;4.93;;;;;;;26.31;44.44;99338.28;5154624;27;20111;-37
2022/08/06 03:26:22;;;;;;;6.05;5.00;;;;;;;26.27;44.34;99338.13;5154157;27;20050;-37
2022/08/06 03:28:48;;;;;;;5.95;5.00;;;;;;;26.64;43.69;99335.94;5154071;27;20518;-37
2022/08/06 03:31:14;;;;;;;8.35;5.28;;;;;;;26.82;42.80;99336.75;5154516;27;20382;-38
2022/08/06 03:33:40;;;;;;;5.18;4.65;;;;;;;26.37;43.93;99347.13;5154614;27;20027;-38
2022/08/06 03:36:06;;;;;;;8.52;4.70;;;;;;;26.37;43.73;99342.47;5154293;27;20715;-36
2022/08/06 03:38:38;;;;;;;7.15;4.80;;;;;;;26.38;43.91;99344.06;5153867;27;20029;-37
2022/08/06 03:41:06;;;;;;;9.20;5.20;;;;;;;26.64;43.05;99335.94;5153810;27;20461;-36
2022/08/06 03:43:31;;;;;;;6.13;4.78;;;;;;;26.29;43.89;99341.34;5154659;27;20023;-37
2022/08/06 03:46:00;;;;;;;6.28;4.70;;;;;;;26.17;44.60;99341.16;5153869;27;20030;-37
2022/08/06 03:48:32;;;;;;;6.22;5.00;;;;;;;26.18;44.45;99347.41;5154125;27;20041;-37
2022/08/06 03:51:03;;;;;;;7.13;4.80;;;;;;;26.70;43.40;99351.03;5153814;27;20061;-37
2022/08/06 03:53:33;;;;;;;6.38;4.93;;;;;;;26.20;44.29;99347.88;5153633;27;20038;-36
2022/08/06 03:56:01;;;;;;;7.78;4.70;;;;;;;26.09;44.79;99341.94;5153852;27;20057;-36
2022/08/06 03:58:28;;;;;;;7.00;4.93;;;;;;;26.27;44.54;99348.22;5145706;27;20027;-36
2022/08/06 04:01:01;;;;;;;7.95;4.50;;;;;;;26.77;43.24;99347.03;5132514;27;20030;-37
2022/08/06 04:03:27;;;;;;;5.68;4.40;;;;;;;26.63;43.64;99339.78;5132374;27;20023;-36
2022/08/06 04:05:54;;;;;;;6.78;4.68;;;;;;;26.59;43.50;99335.28;5133072;27;20478;-36
2022/08/06 04:08:21;;;;;;;5.75;4.90;;;;;;;27.00;42.78;99328.56;5132718;27;20116;-37
2022/08/06 04:10:49;;;;;;;8.05;4.80;;;;;;;27.84;41.01;99331.72;5132777;27;20031;-36
2022/08/06 04:13:17;;;;;;;6.88;4.82;;;;;;;27.47;41.56;99342.28;5132260;27;20076;-36
2022/08/06 04:15:46;;;;;;;7.25;4.85;;;;;;;27.31;42.09;99344.75;5132203;27;20019;-35
2022/08/06 04:18:18;;;;;;;6.95;4.80;;;;;;;27.59;41.55;99341.63;5132212;27;20019;-36
2022/08/06 04:20:47;;;;;;;6.13;5.07;;;;;;;28.20;40.36;99344.91;5131779;27;20027;-37
2022/08/06 04:23:13;;;;;;;6.50;5.43;;;;;;;28.19;39.50;99351.50;5132013;27;20086;-36
2022/08/06 04:25:42;;;;;;;9.48;5.47;;;;;;;28.11;39.82;99354.31;5131250;27;20544;-37
2022/08/06 04:28:09;;;;;;;7.35;5.05;;;;;;;28.36;39.33;99358.00;5131907;27;20027;-37
2022/08/06 04:30:36;;;;;;;6.65;4.95;;;;;;;28.80;38.62;99358.50;5131790;27;20019;-37
2022/08/06 04:33:05;;;;;;;6.22;4.80;;;;;;;28.66;38.77;99342.38;5131673;27;20045;-37
2022/08/06 04:35:31;;;;;;;6.90;4.40;;;;;;;28.49;39.08;99339.75;5131501;27;20034;-37
2022/08/06 04:37:57;;;;;;;7.40;4.70;;;;;;;28.32;39.41;99338.72;5131544;27;20466;-36
2022/08/06 04:40:24;;;;;;;6.22;4.68;;;;;;;28.75;38.62;99345.03;5131362;27;20026;-37
2022/08/06 04:42:51;;;;;;;5.03;4.63;;;;;;;28.30;39.44;99343.72;5131387;27;20023;-37
2022/08/06 04:45:17;;;;;;;7.22;4.45;;;;;;;27.96;40.45;99344.72;5130914;27;20474;-37
2022/08/06 04:47:44;;;;;;;6.00;4.60;;;;;;;27.73;41.09;99346.88;5131229;27;20405;-36
2022/08/06 04:50:10;;;;;;;7.22;5.25;;;;;;;28.17;40.32;99351.03;5131336;27;20031;-36
2022/08/06 04:52:36;;;;;;;6.90;4.47;;;;;;;28.13;40.54;99339.16;5131294;27;20087;-37
2022/08/06 04:55:01;;;;;;;7.72;4.97;;;;;;;27.71;41.35;99344.47;5131130;27;20023;-37
2022/08/06 04:57:26;;;;;;;8.98;7.10;;;;;;;28.02;40.26;99357.84;5131479;27;20067;-37
2022/08/06 04:59:52;;;;;;;10.18;5.72;;;;;;;28.45;39.63;99356.03;5151328;27;20023;-37
2022/08/06 05:02:17;;;;;;;9.45;6.50;;;;;;;28.93;38.83;99365.66;5152214;27;20536;-37
2022/08/06 05:04:43;;;;;;;6.75;5.10;;;;;;;29.00;38.27;99362.38;5151791;27;20023;-37
2022/08/06 05:07:20;;;;;;;6.53;4.97;;;;;;;29.42;37.55;99360.38;5151665;27;20427;-36
2022/08/06 05:09:48;;;;;;;5.47;4.13;;;;;;;29.88;36.71;99359.56;5133252;27;20385;-37
2022/08/06 05:12:27;;;;;;;6.70;4.55;;;;;;;30.07;36.62;99370.75;5151810;27;20379;-37
2022/08/06 05:15:15;;;;;;;4.80;4.30;;;;;;;29.61;37.34;99365.31;5151832;27;20169;-36
2022/08/06 05:17:56;;;;;;;5.32;4.00;;;;;;;29.43;37.82;99369.38;5141527;27;20075;-37
2022/08/06 05:20:22;;;;;;;8.25;4.70;;;;;;;29.36;37.94;99375.44;5151132;27;20026;-36
2022/08/06 05:22:51;;;;;;;8.77;4.78;;;;;;;29.57;37.51;99372.63;5152099;27;20492;-38
2022/08/06 05:25:17;;;;;;;10.73;4.70;;;;;;;29.29;38.21;99368.91;5151372;27;20038;-37
2022/08/06 05:27:44;;;;;;;8.90;4.40;;;;;;;29.42;38.08;99367.81;5132508;27;20023;-36
2022/08/06 05:30:10;;;;;;;4.93;4.40;;;;;;;29.98;37.30;99365.38;5150776;27;20030;-41
2022/08/06 05:32:49;;;;;;;4.75;4.35;;;;;;;30.96;35.71;99372.72;5151355;27;20060;-37
2022/08/06 05:35:14;;;;;;;8.82;4.68;;;;;;;30.96;35.11;99369.16;5151415;27;20508;-37
2022/08/06 05:37:40;;;;;;;9.70;4.53;;;;;;;30.99;34.89;99371.19;5154598;27;20159;-38
2022/08/06 05:40:07;;;;;;;6.82;4.53;;;;;;;31.02;34.83;99370.50;5154805;27;20018;-37
2022/08/06 05:42:32;;;;;;;9.38;4.30;;;;;;;31.60;34.37;99367.34;5154898;27;20445;-36
2022/08/06 05:44:58;;;;;;;11.43;5.20;;;;;;;32.20;33.11;99370.03;5154565;27;20048;-36
2022/08/06 05:47:27;;;;;;;7.45;4.30;;;;;;;32.22;33.17;99373.22;5154427;27;20026;-36
2022/08/06 05:50:01;;;;;;;5.95;4.57;;;;;;;32.42;32.86;99368.53;5154785;27;20037;-37
2022/08/06 05:52:31;;;;;;;7.18;4.50;;;;;;;32.56;32.68;99365.31;5155017;27;20034;-37
2022/08/06 05:55:18;;;;;;;8.63;5.70;;;;;;;32.26;33.24;99368.59;5154986;27;20019;-37
2022/08/06 05:57:47;;;;;;;5.18;4.10;;;;;;;32.60;32.82;99366.22;5152451;27;20022;-37
2022/08/06 06:00:16;;;;;;;7.45;4.10;;;;;;;32.99;32.52;99370.94;5133888;27;20142;-36
2022/08/06 06:02:47;;;;;;;10.57;5.60;;;;;;;33.11;32.24;99370.81;5152967;27;20469;-37
2022/08/06 06:05:13;;;;;;;7.13;5.47;;;;;;;33.38;31.47;99374.47;5135083;27;20094;-37
2022/08/06 06:07:40;;;;;;;9.40;4.20;;;;;;;33.75;31.13;99367.66;5154394;27;20489;-37
2022/08/06 06:10:07;;;;;;;8.32;3.97;;;;;;;33.49;30.83;99367.19;5154097;27;20026;-37
2022/08/06 06:12:33;;;;;;;6.90;4.30;;;;;;;33.56;31.03;99358.25;5154575;27;20019;-37
2022/08/06 06:15:05;;;;;;;7.72;4.00;;;;;;;33.52;31.17;99354.63;5154417;27;20344;-37
2022/08/06 06:17:48;;;;;;;9.02;4.03;;;;;;;34.58;29.87;99359.44;5154599;27;20038;-37
2022/08/06 06:20:46;;;;;;;6.97;4.03;;;;;;;34.49;29.98;99363.66;5153627;27;20014;-37
2022/08/06 06:23:52;;;;;;;7.07;4.50;;;;;;;34.76;29.63;99356.94;5153642;27;20014;-37
2022/08/06 06:26:41;;;;;;;6.88;4.50;;;;;;;34.45;30.12;99364.41;5120997;27;20047;-37
2022/08/06 06:29:16;;;;;;;10.25;4.57;;;;;;;35.39;28.95;99352.50;5153181;27;20014;-35
2022/08/06 06:31:57;;;;;;;8.75;4.45;;;;;;;35.25;29.68;99360.66;5153165;27;20022;-38
2022/08/06 06:34:44;;;;;;;7.72;4.50;;;;;;;35.37;29.39;99354.84;5153190;27;20470;-37
2022/08/06 06:37:24;;;;;;;4.72;4.25;;;;;;;35.47;29.01;99356.16;5154029;27;20607;-38
2022/08/06 06:40:18;;;;;;;7.20;4.90;;;;;;;36.69;28.26;99357.06;5154197;27;20030;-38
2022/08/06 06:42:55;;;;;;;9.45;4.70;;;;;;;35.97;28.45;99348.28;5154056;27;20023;-37
2022/08/06 06:45:47;;;;;;;8.07;4.60;;;;;;;35.99;29.01;99343.16;5154161;27;20030;-37
2022/08/06 06:48:19;;;;;;;8.55;4.45;;;;;;;36.14;28.59;99341.28;5147354;27;20034;-37
2022/08/06 06:50:49;;;;;;;5.45;4.40;;;;;;;37.12;27.48;99334.97;5135752;27;20114;-39
2022/08/06 06:53:16;;;;;;;5.85;4.80;;;;;;;36.67;27.75;99340.03;5149134;27;20027;-37
2022/08/06 06:55:45;;;;;;;6.50;4.60;;;;;;;36.06;28.33;99331.31;5122180;27;20491;-38
2022/08/06 06:58:36;;;;;;;6.72;5.18;;;;;;;36.34;28.01;99327.16;5146421;27;20094;-39
2022/08/06 07:01:06;;;;;;;7.85;4.85;;;;;;;37.09;27.10;99330.25;5150794;27;20087;-38
2022/08/06 07:03:34;;;;;;;6.55;4.80;;;;;;;36.59;27.75;99330.84;5139706;27;20022;-38
2022/08/06 07:06:01;;;;;;;5.50;4.32;;;;;;;36.47;27.78;99338.72;5145352;27;20102;-35
2022/08/06 07:08:28;;;;;;;10.52;4.53;;;;;;;36.91;27.67;99337.72;5133864;27;20054;-37
2022/08/06 07:10:55;;;;;;;7.43;4.70;;;;;;;37.43;27.16;99327.13;5133466;27;20027;-37
2022/08/06 07:13:23;;;;;;;6.25;4.53;;;;;;;38.25;26.12;99328.28;5132979;27;20102;-38
2022/08/06 07:15:50;;;;;;;8.20;4.10;;;;;;;38.01;26.47;99327.13;5133951;27;20034;-36
2022/08/06 07:18:17;;;;;;;5.90;4.50;;;;;;;37.41;26.79;99325.94;5114876;27;20402;-37
2022/08/06 07:20:43;;;;;;;6.97;4.80;;;;;;;37.40;26.75;99316.84;5133148;27;20036;-38
2022/08/06 07:23:10;;;;;;;10.57;5.70;;;;;;;37.62;26.42;99327.97;5132871;27;20062;-37
2022/08/06 07:25:41;;;;;;;10.60;5.75;;;;;;;36.58;27.44;99318.16;5132597;27;20115;-38
2022/08/06 07:28:09;;;;;;;6.97;5.55;;;;;;;36.33;28.37;99329.16;5133021;27;20031;-37
2022/08/06 07:30:36;;;;;;;6.15;5.05;;;;;;;36.30;28.20;99315.28;5132900;27;20473;-37
2022/08/06 07:33:03;;;;;;;7.88;4.80;;;;;;;37.22;27.20;99316.81;5132640;27;20110;-37
2022/08/06 07:35:29;;;;;;;8.02;4.68;;;;;;;36.51;27.70;99320.91;5132401;27;20076;-37
2022/08/06 07:38:06;;;;;;;7.35;4.60;;;;;;;36.49;27.84;99314.97;5132794;27;20030;-38
2022/08/06 07:40:50;;;;;;;6.55;5.40;;;;;;;36.42;27.87;99320.47;5135276;27;20026;-37
2022/08/06 07:43:26;;;;;;;5.60;4.85;;;;;;;37.48;26.95;99307.31;5145298;27;20027;-38
2022/08/06 07:45:55;;;;;;;7.20;5.50;;;;;;;37.01;27.58;99311.19;5135450;27;20200;-37
2022/08/06 07:48:26;;;;;;;8.30;5.28;;;;;;;36.91;28.16;99310.00;5148190;27;20142;-37
2022/08/06 07:50:53;;;;;;;8.45;4.60;;;;;;;37.09;27.92;99315.56;5141511;27;20019;-37
2022/08/06 07:53:21;;;;;;;5.32;4.72;;;;;;;38.01;26.59;99302.16;5140423;27;20459;-38
2022/08/06 07:55:47;;;;;;;7.03;5.15;;;;;;;37.48;26.86;99303.75;5113130;27;20084;-37
2022/08/06 07:58:14;;;;;;;6.85;4.60;;;;;;;37.71;26.68;99304.16;5151883;27;20015;-38
2022/08/06 08:00:40;;;;;;;5.15;4.65;;;;;;;37.76;27.12;99297.44;5145006;27;20474;-38
2022/08/06 08:08:36;;;;;;;7.50;4.50;;;;;;;38.55;26.14;99299.25;5131893;27;20059;-38
2022/08/06 08:11:02;;;;;;;19.95;17.85;;;;;;;38.89;26.13;99293.88;5132376;27;20019;-39
2022/08/06 08:13:30;;;;;;;9.15;4.60;;;;;;;39.57;24.73;99301.78;5132209;27;20031;-38
2022/08/06 08:15:57;;;;;;;8.55;7.50;;;;;;;38.92;25.22;99293.88;5131787;27;20084;-38
2022/08/06 08:18:30;;;;;;;20.00;17.90;;;;;;;39.16;25.32;99294.13;5131940;27;20023;-37
2022/08/06 08:20:57;;;;;;;6.95;4.47;;;;;;;39.38;24.46;99289.19;5132355;27;20073;-37
2022/08/06 08:23:23;;;;;;;5.63;4.57;;;;;;;39.62;24.20;99293.00;5132245;27;20102;-37
2022/08/06 08:25:49;;;;;;;6.00;4.57;;;;;;;39.25;25.02;99290.91;5131711;27;20047;-36
2022/08/06 08:28:14;;;;;;;5.07;4.30;;;;;;;39.28;24.86;99284.50;5131261;27;20034;-37
2022/08/06 08:30:40;;;;;;;7.20;4.50;;;;;;;39.33;24.13;99277.72;5131524;27;20123;-37
2022/08/06 08:33:06;;;;;;;5.63;4.40;;;;;;;39.73;24.00;99278.97;5131310;27;20019;-37
2022/08/06 08:35:31;;;;;;;10.00;4.25;;;;;;;39.85;23.97;99281.25;5129625;27;20023;-38
2022/08/06 08:37:57;;;;;;;4.88;3.97;;;;;;;39.59;23.32;99284.69;5129544;27;20019;-38
2022/08/06 08:40:24;;;;;;;6.68;4.30;;;;;;;39.63;23.51;99279.88;5130026;27;20030;-38
2022/08/06 08:42:53;;;;;;;4.53;4.13;;;;;;;39.77;23.48;99276.16;5131060;27;20052;-38
2022/08/06 08:45:20;;;;;;;4.93;3.70;;;;;;;40.74;21.80;99273.03;5131474;27;20051;-46
2022/08/06 08:47:50;;;;;;;3.97;3.58;;;;;;;40.27;22.20;99270.06;5131240;27;20097;-36
2022/08/06 08:50:18;;;;;;;4.10;3.70;;;;;;;40.01;22.05;99263.19;5130592;27;20427;-37
2022/08/06 08:52:47;;;;;;;5.38;3.80;;;;;;;39.80;22.52;99267.75;5131211;27;20044;-37
2022/08/06 08:55:18;;;;;;;7.63;3.83;;;;;;;39.99;22.89;99263.63;5131180;27;20489;-38
2022/08/06 08:57:44;;;;;;;6.28;3.70;;;;;;;39.86;22.71;99254.97;5133029;27;20026;-37
2022/08/06 09:00:11;;;;;;;4.88;3.80;;;;;;;39.54;22.97;99249.72;5151750;27;20019;-37
2022/08/06 09:02:38;;;;;;;4.68;3.80;;;;;;;39.32;22.78;99251.09;5151458;27;20033;-37
2022/08/06 09:05:05;;;;;;;5.75;3.80;;;;;;;39.63;22.39;99252.03;5151336;27;20023;-39
2022/08/06 09:07:31;;;;;;;4.30;3.90;;;;;;;39.46;22.79;99253.78;5152120;27;20049;-38
2022/08/06 09:09:58;;;;;;;4.25;3.80;;;;;;;39.38;23.46;99252.25;5151252;27;20101;-38
2022/08/06 09:12:24;;;;;;;4.05;3.58;;;;;;;39.79;22.18;99245.91;5151793;27;20019;-37
2022/08/06 09:14:50;;;;;;;4.53;3.70;;;;;;;40.37;21.52;99241.28;5151626;27;20029;-37
2022/08/06 09:17:16;;;;;;;6.38;4.03;;;;;;;40.28;21.37;99246.56;5151635;27;20018;-37
2022/08/06 09:19:42;;;;;;;7.68;4.85;;;;;;;40.02;21.95;99242.47;5132741;27;20528;-37
2022/08/06 09:22:09;;;;;;;6.35;5.32;;;;;;;39.69;21.78;99242.81;5151316;27;20086;-37
2022/08/06 09:24:34;;;;;;;4.63;3.65;;;;;;;39.89;21.99;99242.25;5151595;27;20023;-37
2022/08/06 09:27:13;;;;;;;5.50;3.70;;;;;;;39.43;22.39;99237.88;5152121;27;20034;-38
2022/08/06 09:29:52;;;;;;;;;;;;;;;39.12;22.70;99236.97;5152146;27;20063;-39
2022/08/06 09:32:43;;;;;;;4.78;3.95;;;;;;;39.27;22.73;99239.19;5151374;27;20369;-37
2022/08/06 09:35:27;;;;;;;5.93;4.30;;;;;;;39.61;22.94;99241.31;5151521;27;20031;-37
2022/08/06 09:38:06;;;;;;;6.82;4.03;;;;;;;39.57;22.90;99239.78;5151461;27;20055;-38
2022/08/06 09:40:32;;;;;;;5.22;3.90;;;;;;;39.79;22.75;99227.19;5151499;27;20098;-37
2022/08/06 09:42:58;;;;;;;7.00;5.15;;;;;;;39.80;22.23;99230.78;5151238;27;20102;-37
2022/08/06 09:45:25;;;;;;;5.78;4.05;;;;;;;39.61;22.14;99235.75;5151657;27;20034;-37
2022/08/06 09:48:05;;;;;;;4.33;3.93;;;;;;;40.04;21.53;99242.84;5133320;27;20023;-37
2022/08/06 09:50:37;;;;;;;4.78;3.60;;;;;;;39.94;21.14;99233.44;5130812;28;20024;-38
2022/08/06 09:53:03;;;;;;;5.10;3.58;;;;;;;39.49;21.42;99228.72;5130763;28;20101;-37
2022/08/06 09:55:30;;;;;;;5.43;3.70;;;;;;;39.65;22.14;99224.56;5130738;28;20397;-37
2022/08/06 09:57:55;;;;;;;5.20;4.70;;;;;;;39.57;22.29;99237.78;5134163;27;20015;-37
2022/08/06 10:00:27;;;;;;;6.22;3.83;;;;;;;39.10;22.35;99245.72;5151034;27;20057;-36
2022/08/06 10:02:57;;;;;;;6.93;4.30;;;;;;;39.46;21.91;99237.88;5150971;27;20486;-37
2022/08/06 10:05:23;;;;;;;4.13;3.72;;;;;;;39.77;21.77;99235.16;5151787;27;20019;-36
2022/08/06 10:08:27;;;;;;;4.10;3.70;;;;;;;39.23;22.44;99230.09;5151246;27;20086;-38
2022/08/06 10:10:52;;;;;;;4.30;3.42;;;;;;;39.07;22.75;99224.25;5109118;27;20090;-37
2022/08/06 10:13:24;;;;;;;5.05;3.58;;;;;;;38.51;22.56;99222.19;5151113;27;20038;-39
2022/08/06 10:15:52;;;;;;;6.03;3.78;;;;;;;38.42;23.30;99221.84;5150746;27;20573;-38
2022/08/06 10:18:30;;;;;;;7.68;3.80;;;;;;;38.68;23.13;99216.97;5151111;27;20097;-37
2022/08/06 10:21:04;;;;;;;4.47;3.88;;;;;;;37.74;23.54;99214.56;5130383;28;20027;-38
2022/08/06 10:23:38;;;;;;;3.92;3.42;;;;;;;37.90;23.88;99203.00;5133323;27;20111;-36
2022/08/06 10:26:05;;;;;;;4.00;3.60;;;;;;;38.37;23.83;99202.84;5134052;27;20054;-38
2022/08/06 10:28:33;;;;;;;4.50;3.97;;;;;;;38.19;23.52;99202.13;5134072;27;20119;-38
2022/08/06 10:31:02;;;;;;;4.10;3.80;;;;;;;37.67;23.96;99189.59;5134117;27;20100;-38
2022/08/06 10:33:32;;;;;;;4.05;3.75;;;;;;;37.69;24.02;99191.97;5134423;27;20033;-36
2022/08/06 10:36:05;;;;;;;6.68;3.60;;;;;;;37.83;24.19;99189.13;5133443;27;20054;-38
2022/08/06 10:38:33;;;;;;;5.45;4.00;;;;;;;38.75;22.90;99191.09;5133534;27;20414;-38
2022/08/06 10:41:03;;;;;;;6.18;4.15;;;;;;;37.80;23.93;99184.41;5133408;27;20035;-37
2022/08/06 10:43:29;;;;;;;4.68;3.80;;;;;;;37.77;24.39;99178.88;5133761;27;20027;-37
2022/08/06 10:45:55;;;;;;;5.15;3.80;;;;;;;38.23;23.78;99184.28;5133263;27;20026;-37
2022/08/06 10:48:23;;;;;;;4.30;3.90;;;;;;;39.18;22.82;99186.03;5133258;27;20027;-37
2022/08/06 10:50:50;;;;;;;4.65;4.20;;;;;;;38.22;23.89;99187.44;5133493;27;20031;-38
2022/08/06 10:53:16;;;;;;;8.00;3.97;;;;;;;38.00;23.71;99179.16;5133004;27;20095;-36
2022/08/06 10:55:42;;;;;;;5.13;4.18;;;;;;;38.02;24.11;99181.53;5132607;27;20476;-37
2022/08/06 10:58:08;;;;;;;5.80;3.92;;;;;;;38.79;23.79;99170.44;5132525;27;20027;-38
2022/08/06 11:00:35;;;;;;;7.22;4.13;;;;;;;38.84;22.48;99170.00;5132675;27;20034;-38
2022/08/06 11:03:40;;;;;;;4.20;3.78;;;;;;;37.62;23.77;99167.78;5132657;27;20086;-38
2022/08/06 11:06:44;;;;;;;5.50;3.85;;;;;;;37.39;24.61;99156.34;5121688;27;20104;-38
2022/08/06 11:09:40;;;;;;;5.30;3.88;;;;;;;37.73;25.28;99157.44;5051602;28;20029;-37
2022/08/06 11:12:43;;;;;;;4.72;4.05;;;;;;;38.00;23.87;99158.94;5131490;27;20026;-38
2022/08/06 11:15:09;;;;;;;5.15;4.00;;;;;;;37.91;24.70;99153.84;5131673;27;20032;-38
2022/08/06 11:17:42;;;;;;;4.40;4.00;;;;;;;38.10;24.04;99147.81;5131415;27;20065;-38
2022/08/06 11:20:08;;;;;;;4.90;4.30;;;;;;;38.30;23.52;99148.09;5131389;27;20019;-38
2022/08/06 11:22:36;;;;;;;5.13;3.83;;;;;;;38.19;23.17;99146.59;5131575;27;20075;-38
2022/08/06 11:25:04;;;;;;;6.28;3.97;;;;;;;38.42;23.41;99149.59;5131138;27;20047;-38
2022/08/06 11:27:49;;;;;;;;;;;;;;;38.88;23.11;99148.53;5131952;27;20027;-38
2022/08/06 11:30:14;;;;;;;5.68;3.95;;;;;;;38.69;23.04;99143.50;5130628;27;19914;-38
2022/08/06 11:32:44;;;;;;;4.30;3.90;;;;;;;38.36;23.79;99144.91;5131054;27;20019;-38
2022/08/06 11:35:34;;;;;;;4.20;3.80;;;;;;;38.48;23.65;99147.19;5131033;27;20474;-38
2022/08/06 11:38:01;;;;;;;5.68;3.85;;;;;;;38.64;23.31;99141.19;5130948;27;20027;-38
2022/08/06 11:40:27;;;;;;;5.25;4.00;;;;;;;38.83;23.00;99134.28;5131016;27;20030;-38
2022/08/06 11:42:52;;;;;;;7.60;4.00;;;;;;;38.98;22.74;99141.28;5138435;27;20015;-38
2022/08/06 11:45:18;;;;;;;7.85;3.80;;;;;;;38.53;23.20;99135.66;5151461;27;20130;-38
2022/08/06 11:48:06;;;;;;;5.68;4.00;;;;;;;37.90;23.80;99139.16;5152012;27;20034;-37
2022/08/06 11:50:31;;;;;;;5.53;3.92;;;;;;;37.77;24.44;99138.00;5151326;27;20019;-37
2022/08/06 11:52:57;;;;;;;5.97;4.15;;;;;;;37.94;25.33;99136.34;5151987;27;20022;-37
2022/08/06 11:55:22;;;;;;;6.05;3.83;;;;;;;38.35;24.03;99133.00;5151697;27;20019;-37
2022/08/06 11:58:07;;;;;;;12.80;11.52;;;;;;;39.07;23.33;99135.25;5151450;27;20420;-37